createdAt,value
2018-09-13T00:01:13.222Z,22.60
2018-09-13T00:03:40.903Z,22.70
2018-09-13T00:06:08.487Z,22.50
2018-09-13T00:08:36.106Z,22.60
2018-09-13T00:11:03.712Z,22.60
2018-09-13T00:13:31.981Z,22.70
2018-09-13T00:15:59.650Z,22.50
2018-09-13T00:18:27.650Z,22.50
2018-09-13T00:20:55.327Z,22.30
2018-09-13T00:23:22.938Z,22.30
2018-09-13T00:25:50.726Z,22.30
2018-09-13T00:28:19.243Z,22.10
2018-09-13T00:30:46.872Z,22.10
2018-09-13T00:33:14.512Z,22.00
2018-09-13T00:35:42.178Z,22.00
2018-09-13T00:38:09.875Z,21.90
2018-09-13T00:40:37.502Z,21.50
2018-09-13T00:43:05.126Z,21.90
2018-09-13T00:45:32.787Z,21.90
2018-09-13T00:48:00.702Z,21.80
2018-09-13T00:50:28.386Z,21.70
2018-09-13T00:52:56.861Z,21.90
2018-09-13T00:55:25.573Z,21.90
2018-09-13T00:57:53.210Z,21.90
2018-09-13T01:00:21.297Z,21.90
2018-09-13T01:02:49.266Z,22.10
2018-09-13T01:05:17.002Z,21.90
2018-09-13T01:07:44.690Z,21.70
2018-09-13T01:10:12.377Z,21.70
2018-09-13T01:12:40.019Z,21.40
2018-09-13T01:15:07.963Z,21.70
2018-09-13T01:17:35.705Z,21.70
2018-09-13T01:20:03.627Z,21.70
2018-09-13T01:22:31.372Z,21.70
2018-09-13T01:24:59.050Z,21.50
2018-09-13T01:27:27.515Z,21.70
2018-09-13T01:29:55.771Z,21.70
2018-09-13T01:32:23.423Z,21.80
2018-09-13T01:34:51.772Z,21.60
2018-09-13T01:37:19.746Z,21.80
2018-09-13T01:39:47.578Z,21.60
2018-09-13T01:42:15.218Z,21.60
2018-09-13T01:44:42.878Z,21.60
2018-09-13T01:47:10.554Z,21.60
2018-09-13T01:49:38.406Z,21.40
2018-09-13T01:52:06.299Z,21.30
2018-09-13T01:54:34.155Z,21.30
2018-09-13T01:57:01.822Z,21.10
2018-09-13T01:59:29.572Z,21.30
2018-09-13T02:01:57.230Z,21.30
2018-09-13T02:04:24.950Z,21.30
2018-09-13T02:06:52.630Z,21.40
2018-09-13T02:09:20.290Z,21.40
2018-09-13T02:11:47.894Z,21.30
2018-09-13T02:14:15.551Z,21.20
2018-09-13T02:16:43.250Z,21.10
2018-09-13T02:19:11.128Z,20.90
2018-09-13T02:21:38.815Z,20.90
2018-09-13T02:24:07.535Z,21.10
2018-09-13T02:26:35.202Z,21.00
2018-09-13T02:29:03.019Z,20.70
2018-09-13T02:31:30.671Z,20.80
2018-09-13T02:33:58.347Z,20.40
2018-09-13T02:36:26.184Z,20.40
2018-09-13T02:38:53.918Z,20.60
2018-09-13T02:41:21.553Z,20.50
2018-09-13T02:43:49.574Z,20.70
2018-09-13T02:46:17.238Z,20.50
2018-09-13T02:48:44.919Z,20.30
2018-09-13T02:51:12.717Z,20.00
2018-09-13T02:53:40.460Z,20.20
2018-09-13T02:56:08.146Z,20.40
2018-09-13T02:58:35.756Z,20.20
2018-09-13T03:01:03.409Z,20.00
2018-09-13T03:03:31.082Z,20.00
2018-09-13T03:05:58.736Z,20.00
2018-09-13T03:08:26.430Z,20.10
2018-09-13T03:10:54.076Z,20.00
2018-09-13T03:13:21.754Z,19.90
2018-09-13T03:15:49.586Z,19.80
2018-09-13T03:18:17.264Z,19.90
2018-09-13T03:20:45.094Z,19.70
2018-09-13T03:23:12.862Z,20.00
2018-09-13T03:25:40.803Z,19.70
2018-09-13T03:28:08.435Z,19.90
2018-09-13T03:30:36.951Z,19.90
2018-09-13T03:33:05.004Z,19.70
2018-09-13T03:35:32.731Z,19.70
2018-09-13T03:38:00.412Z,19.80
2018-09-13T03:40:28.109Z,19.90
2018-09-13T03:42:55.834Z,19.50
2018-09-13T03:45:23.538Z,19.80
2018-09-13T03:47:51.655Z,19.40
2018-09-13T03:50:19.356Z,19.60
2018-09-13T03:52:47.481Z,19.40
2018-09-13T03:55:15.423Z,19.60
2018-09-13T03:57:43.190Z,19.70
2018-09-13T04:00:11.370Z,19.80
2018-09-13T04:02:39.460Z,19.90
2018-09-13T04:05:07.138Z,19.80
2018-09-13T04:07:35.279Z,19.80
2018-09-13T04:10:03.093Z,19.70
2018-09-13T04:12:30.794Z,19.50
2018-09-13T04:14:58.702Z,19.70
2018-09-13T04:17:26.794Z,19.40
2018-09-13T04:19:54.540Z,19.30
2018-09-13T04:22:22.240Z,19.40
2018-09-13T04:24:49.830Z,19.70
2018-09-13T04:27:17.503Z,19.80
2018-09-13T04:29:45.216Z,19.80
2018-09-13T04:32:12.868Z,19.80
2018-09-13T04:34:40.599Z,19.50
2018-09-13T04:37:08.697Z,19.60
2018-09-13T04:39:36.406Z,19.70
2018-09-13T04:42:04.114Z,19.50
2018-09-13T04:44:31.789Z,19.60
2018-09-13T04:46:59.577Z,19.60
2018-09-13T04:49:27.264Z,19.10
2018-09-13T04:51:54.880Z,19.40
2018-09-13T04:54:22.506Z,19.30
2018-09-13T04:56:50.218Z,19.20
2018-09-13T04:59:17.988Z,19.30
2018-09-13T05:01:45.936Z,19.40
2018-09-13T05:04:14.001Z,19.60
2018-09-13T05:06:41.745Z,19.50
2018-09-13T05:09:11.425Z,19.40
2018-09-13T05:11:39.299Z,19.60
2018-09-13T05:14:07.323Z,19.40
2018-09-13T05:16:35.119Z,19.00
2018-09-13T05:19:02.744Z,19.40
2018-09-13T05:21:31.138Z,19.30
2018-09-13T05:23:58.820Z,19.30
2018-09-13T05:26:26.409Z,19.20
2018-09-13T05:28:54.139Z,19.40
2018-09-13T05:31:22.043Z,19.50
2018-09-13T05:33:49.875Z,19.60
2018-09-13T05:36:17.626Z,19.40
2018-09-13T05:38:46.216Z,19.50
2018-09-13T05:41:14.370Z,19.60
2018-09-13T05:43:42.110Z,19.50
2018-09-13T05:46:10.179Z,19.50
2018-09-13T05:48:37.939Z,19.50
2018-09-13T05:51:05.629Z,19.70
2018-09-13T05:53:33.401Z,19.60
2018-09-13T05:56:01.254Z,19.60
2018-09-13T05:58:29.159Z,19.60
2018-09-13T06:00:56.903Z,19.50
2018-09-13T06:03:24.545Z,19.30
2018-09-13T06:05:52.177Z,19.50
2018-09-13T06:08:19.879Z,19.50
2018-09-13T06:10:48.369Z,19.70
2018-09-13T06:13:16.093Z,19.90
2018-09-13T06:15:43.802Z,20.00
2018-09-13T06:18:11.462Z,19.80
2018-09-13T06:20:39.257Z,19.80
2018-09-13T06:23:07.919Z,20.00
2018-09-13T06:25:35.608Z,20.20
2018-09-13T06:28:03.829Z,20.30
2018-09-13T06:30:32.947Z,20.00
2018-09-13T06:33:00.905Z,20.20
2018-09-13T06:35:30.622Z,20.30
2018-09-13T06:37:58.459Z,20.30
2018-09-13T06:40:26.418Z,20.20
2018-09-13T06:42:55.187Z,19.90
2018-09-13T06:45:22.950Z,20.10
2018-09-13T06:47:50.626Z,20.40
2018-09-13T06:50:18.267Z,20.30
2018-09-13T06:52:45.944Z,20.60
2018-09-13T06:55:13.631Z,20.20
2018-09-13T06:57:41.346Z,20.00
2018-09-13T07:00:09.022Z,20.10
2018-09-13T07:02:36.803Z,20.30
2018-09-13T07:05:04.723Z,20.30
2018-09-13T07:07:32.519Z,20.60
2018-09-13T07:10:00.250Z,20.50
2018-09-13T07:12:27.921Z,20.40
2018-09-13T07:14:55.586Z,20.40
2018-09-13T07:17:23.200Z,20.50
2018-09-13T07:19:50.786Z,20.60
2018-09-13T07:22:18.450Z,20.60
2018-09-13T07:24:46.126Z,20.60
2018-09-13T07:27:14.246Z,20.70
2018-09-13T07:29:41.863Z,20.80
2018-09-13T07:32:09.514Z,20.70
2018-09-13T07:34:37.298Z,20.80
2018-09-13T07:37:05.259Z,20.90
2018-09-13T07:39:33.437Z,20.70
2018-09-13T07:42:05.481Z,20.60
2018-09-13T07:44:33.481Z,20.60
2018-09-13T07:47:01.222Z,20.60
2018-09-13T07:49:29.217Z,20.40
2018-09-13T07:51:56.834Z,20.70
2018-09-13T07:54:25.226Z,20.80
2018-09-13T07:56:52.870Z,20.80
2018-09-13T07:59:20.718Z,20.70
2018-09-13T08:01:48.403Z,21.00
2018-09-13T08:04:16.096Z,21.00
2018-09-13T08:06:43.835Z,21.00
2018-09-13T08:09:12.730Z,20.90
2018-09-13T08:11:41.040Z,21.00
2018-09-13T08:14:09.695Z,21.00
2018-09-13T08:16:37.585Z,21.00
2018-09-13T08:19:05.328Z,21.10
2018-09-13T08:24:43.072Z,21.40
2018-09-13T08:27:10.777Z,21.40
2018-09-13T08:29:38.435Z,21.40
2018-09-13T08:32:06.231Z,21.20
2018-09-13T08:34:34.174Z,21.30
2018-09-13T08:37:02.013Z,21.30
2018-09-13T08:39:29.709Z,21.30
2018-09-13T08:41:57.521Z,21.40
2018-09-13T08:44:25.177Z,21.30
2018-09-13T08:46:52.823Z,21.30
2018-09-13T08:49:21.308Z,21.50
2018-09-13T08:51:49.163Z,21.60
2018-09-13T08:54:16.823Z,21.80
2018-09-13T08:56:44.542Z,22.00
2018-09-13T08:59:12.303Z,21.80
2018-09-13T09:01:40.196Z,22.30
2018-09-13T09:04:08.083Z,22.90
2018-09-13T09:06:35.944Z,23.50
2018-09-13T09:09:06.406Z,23.90
2018-09-13T09:11:34.134Z,24.10
2018-09-13T09:14:01.848Z,24.00
2018-09-13T09:16:29.464Z,23.90
2018-09-13T09:18:57.047Z,23.70
2018-09-13T09:21:24.638Z,23.80
2018-09-13T09:23:52.299Z,23.80
2018-09-13T09:26:19.914Z,23.80
2018-09-13T09:28:47.699Z,24.30
2018-09-13T09:31:15.391Z,24.60
2018-09-13T09:33:43.024Z,24.70
2018-09-13T09:36:10.686Z,24.90
2018-09-13T09:38:38.360Z,25.70
2018-09-13T09:41:06.043Z,25.90
2018-09-13T09:43:33.677Z,25.80
2018-09-13T09:46:01.444Z,25.60
2018-09-13T09:48:29.098Z,25.20
2018-09-13T09:50:56.883Z,24.90
2018-09-13T09:53:24.487Z,24.60
2018-09-13T09:55:52.192Z,24.50
2018-09-13T09:58:19.826Z,24.50
2018-09-13T10:02:58.073Z,24.50
2018-09-13T10:05:25.685Z,24.40
2018-09-13T10:07:53.362Z,24.40
2018-09-13T10:10:20.987Z,24.40
2018-09-13T10:12:48.616Z,24.40
2018-09-13T10:15:21.887Z,24.40
2018-09-13T10:17:55.172Z,24.50
2018-09-13T10:20:28.307Z,24.40
2018-09-13T10:23:01.669Z,24.30
2018-09-13T10:25:34.736Z,24.20
2018-09-13T10:28:07.918Z,24.20
2018-09-13T10:30:41.208Z,24.20
2018-09-13T10:33:14.414Z,24.20
2018-09-13T10:35:47.538Z,24.20
2018-09-13T10:38:20.762Z,24.20
2018-09-13T10:40:54.166Z,24.10
2018-09-13T10:43:27.453Z,24.10
2018-09-13T10:46:00.695Z,24.10
2018-09-13T10:48:30.077Z,24.10
2018-09-13T10:51:03.382Z,23.90
2018-09-13T10:53:36.685Z,23.80
2018-09-13T10:56:04.953Z,23.80
2018-09-13T10:58:32.752Z,23.70
2018-09-13T11:01:00.392Z,23.60
2018-09-13T11:03:28.196Z,23.50
2018-09-13T11:05:55.843Z,23.60
2018-09-13T11:08:23.586Z,23.40
2018-09-13T11:10:51.859Z,23.50
2018-09-13T11:13:27.648Z,23.50
2018-09-13T11:15:55.278Z,23.50
2018-09-13T11:18:23.054Z,23.60
2018-09-13T11:20:50.768Z,23.60
2018-09-13T11:23:18.495Z,23.60
2018-09-13T11:25:46.175Z,23.50
2018-09-13T11:28:13.874Z,23.50
2018-09-13T11:30:41.731Z,23.60
2018-09-13T11:33:09.366Z,23.70
2018-09-13T11:35:37.018Z,23.70
2018-09-13T11:38:04.740Z,23.60
2018-09-13T11:40:32.678Z,23.60
2018-09-13T11:43:00.218Z,23.50
2018-09-13T11:45:27.970Z,23.50
2018-09-13T11:47:55.610Z,23.50
2018-09-13T11:50:23.385Z,23.50
2018-09-13T11:52:51.029Z,23.60
2018-09-13T11:55:18.808Z,23.50
2018-09-13T11:57:46.444Z,23.50
2018-09-13T12:00:14.216Z,23.50
2018-09-13T12:02:41.923Z,23.50
2018-09-13T12:05:09.529Z,23.50
2018-09-13T12:07:37.264Z,23.50
2018-09-13T12:10:05.397Z,23.60
2018-09-13T12:12:33.030Z,23.60
2018-09-13T12:15:00.691Z,23.70
2018-09-13T12:17:28.391Z,23.70
2018-09-13T12:19:56.064Z,23.70
2018-09-13T12:22:23.690Z,23.80
2018-09-13T12:24:51.395Z,23.70
2018-09-13T12:27:19.158Z,23.80
2018-09-13T12:29:46.783Z,23.70
2018-09-13T12:32:14.527Z,23.50
2018-09-13T12:34:42.238Z,23.70
2018-09-13T12:37:09.955Z,23.70
2018-09-13T12:39:37.703Z,23.80
2018-09-13T12:42:05.384Z,23.80
2018-09-13T12:44:33.708Z,23.90
2018-09-13T12:47:01.375Z,23.90
2018-09-13T12:49:29.170Z,24.00
2018-09-13T12:51:56.803Z,24.10
2018-09-13T12:54:24.570Z,24.20
2018-09-13T12:56:52.259Z,24.30
2018-09-13T12:59:20.878Z,24.40
2018-09-13T13:01:48.608Z,24.40
2018-09-13T13:04:16.242Z,24.40
2018-09-13T13:06:44.519Z,24.40
2018-09-13T13:09:12.570Z,24.40
2018-09-13T13:11:40.281Z,24.40
2018-09-13T13:14:08.252Z,24.40
2018-09-13T13:16:36.311Z,24.40
2018-09-13T13:19:04.131Z,24.40
2018-09-13T13:21:31.848Z,24.30
2018-09-13T13:24:00.618Z,24.30
2018-09-13T13:26:28.698Z,24.20
2018-09-13T13:28:56.380Z,24.10
2018-09-13T13:31:24.773Z,24.10
2018-09-13T13:33:53.654Z,24.10
2018-09-13T13:36:21.380Z,24.10
2018-09-13T13:38:49.556Z,24.20
2018-09-13T13:41:17.334Z,24.20
2018-09-13T13:43:45.075Z,24.30
2018-09-13T13:46:12.830Z,24.40
2018-09-13T13:48:40.540Z,24.30
2018-09-13T13:51:08.212Z,24.40
2018-09-13T13:53:35.990Z,24.30
2018-09-13T13:56:03.667Z,24.30
2018-09-13T13:58:31.362Z,24.20
2018-09-13T14:00:58.982Z,24.20
2018-09-13T14:03:26.663Z,24.30
2018-09-13T14:05:54.314Z,24.30
2018-09-13T14:08:21.929Z,24.30
2018-09-13T14:10:49.716Z,24.30
2018-09-13T14:13:17.319Z,24.30
2018-09-13T14:15:45.024Z,24.20
2018-09-13T14:18:12.718Z,24.20
2018-09-13T14:20:40.504Z,24.20
2018-09-13T14:23:08.107Z,24.20
2018-09-13T14:25:35.966Z,24.20
2018-09-13T14:28:03.739Z,24.10
2018-09-13T14:30:31.478Z,24.10
2018-09-13T14:32:59.159Z,24.10
2018-09-13T14:35:26.872Z,24.20
2018-09-13T14:37:54.492Z,24.10
2018-09-13T14:40:22.275Z,24.00
2018-09-13T14:42:49.985Z,23.90
2018-09-13T14:45:17.611Z,23.90
2018-09-13T14:47:45.232Z,23.90
2018-09-13T14:50:13.067Z,23.90
2018-09-13T14:52:40.734Z,23.90
2018-09-13T14:55:08.419Z,24.00
2018-09-13T14:57:36.063Z,23.90
2018-09-13T15:00:04.078Z,23.90
2018-09-13T15:02:31.689Z,23.80
2018-09-13T15:04:59.447Z,23.80
2018-09-13T15:07:27.089Z,23.70
2018-09-13T15:09:54.770Z,23.80
2018-09-13T15:12:22.472Z,23.80
2018-09-13T15:14:50.818Z,23.80
2018-09-13T15:17:18.502Z,23.90
2018-09-13T15:19:46.194Z,23.80
2018-09-13T15:22:13.810Z,23.80
2018-09-13T15:24:41.669Z,23.80
2018-09-13T15:27:09.932Z,23.70
2018-09-13T15:29:37.655Z,23.80
2018-09-13T15:32:05.490Z,23.70
2018-09-13T15:34:33.186Z,23.70
2018-09-13T15:37:00.898Z,23.70
2018-09-13T15:39:28.566Z,23.60
2018-09-13T15:41:56.266Z,23.50
2018-09-13T15:44:24.119Z,23.40
2018-09-13T15:46:54.753Z,23.50
2018-09-13T15:49:22.460Z,23.50
2018-09-13T15:51:50.237Z,23.40
2018-09-13T15:54:17.942Z,23.40
2018-09-13T15:56:45.703Z,23.30
2018-09-13T15:59:13.477Z,23.20
2018-09-13T16:01:41.348Z,23.10
2018-09-13T16:04:08.992Z,23.00
2018-09-13T16:06:36.716Z,23.10
2018-09-13T16:09:06.664Z,23.00
2018-09-13T16:11:34.430Z,23.00
2018-09-13T16:14:02.075Z,23.00
2018-09-13T16:16:29.772Z,22.80
2018-09-13T16:18:57.503Z,22.80
2018-09-13T16:21:25.196Z,22.90
2018-09-13T16:23:52.910Z,22.70
2018-09-13T16:26:20.655Z,22.70
2018-09-13T16:28:48.421Z,22.80
2018-09-13T16:31:16.143Z,22.70
2018-09-13T16:33:43.929Z,22.60
2018-09-13T16:36:18.180Z,22.50
2018-09-13T16:38:51.467Z,22.50
2018-09-13T16:41:24.667Z,22.40
2018-09-13T16:43:58.156Z,22.30
2018-09-13T16:46:32.214Z,22.10
2018-09-13T16:48:59.964Z,22.00
2018-09-13T16:51:27.568Z,21.90
2018-09-13T16:53:55.271Z,21.90
2018-09-13T16:56:23.002Z,21.80
2018-09-13T16:58:50.774Z,21.60
2018-09-13T17:01:18.571Z,21.70
2018-09-13T17:03:46.195Z,21.60
2018-09-13T17:06:13.932Z,21.60
2018-09-13T17:08:41.740Z,21.50
2018-09-13T17:11:09.470Z,21.10
2018-09-13T17:13:37.283Z,21.30
2018-09-13T17:16:04.987Z,21.20
2018-09-13T17:21:14.631Z,21.20
2018-09-13T17:23:42.347Z,21.10
2018-09-13T17:26:10.056Z,21.10
2018-09-13T17:28:37.796Z,21.00
2018-09-13T17:31:05.432Z,20.90
2018-09-13T17:33:33.132Z,21.00
2018-09-13T17:36:00.805Z,21.00
2018-09-13T17:38:28.486Z,21.00
2018-09-13T17:40:56.180Z,21.00
2018-09-13T17:43:23.892Z,20.50
2018-09-13T17:45:51.742Z,20.90
2018-09-13T17:48:19.410Z,20.30
2018-09-13T17:50:47.051Z,20.80
2018-09-13T17:53:14.784Z,21.00
2018-09-13T17:55:42.441Z,20.90
2018-09-13T17:58:10.147Z,21.00
2018-09-13T18:00:37.768Z,20.80
2018-09-13T18:03:06.679Z,20.70
2018-09-13T18:05:36.421Z,20.70
2018-09-13T18:08:04.172Z,20.60
2018-09-13T18:10:31.966Z,20.10
2018-09-13T18:12:59.760Z,20.50
2018-09-13T18:15:27.507Z,20.60
2018-09-13T18:17:55.673Z,20.50
2018-09-13T18:20:23.470Z,20.50
2018-09-13T18:22:51.099Z,20.70
2018-09-13T18:25:18.803Z,20.50
2018-09-13T18:27:46.512Z,20.40
2018-09-13T18:30:16.808Z,20.60
2018-09-13T18:32:44.692Z,20.40
2018-09-13T18:35:12.667Z,20.50
2018-09-13T18:37:40.331Z,20.10
2018-09-13T18:40:08.074Z,20.40
2018-09-13T18:42:35.751Z,20.40
2018-09-13T18:45:03.557Z,20.40
2018-09-13T18:47:32.006Z,20.40
2018-09-13T18:50:00.236Z,20.10
2018-09-13T18:52:28.861Z,20.20
2018-09-13T18:54:58.078Z,20.20
2018-09-13T18:57:27.063Z,20.50
2018-09-13T18:59:59.474Z,20.40
2018-09-13T19:02:28.175Z,20.40
2018-09-13T19:04:55.893Z,20.30
2018-09-13T19:07:24.006Z,20.00
2018-09-13T19:09:52.424Z,20.40
2018-09-13T19:12:20.134Z,20.40
2018-09-13T19:14:48.559Z,20.40
2018-09-13T19:17:16.396Z,20.40
2018-09-13T19:19:44.446Z,20.40
2018-09-13T19:22:12.357Z,19.90
2018-09-13T19:24:41.627Z,20.40
2018-09-13T19:27:09.307Z,20.50
2018-09-13T19:29:36.951Z,20.30
2018-09-13T19:32:04.954Z,20.50
2018-09-13T19:34:33.560Z,20.50
2018-09-13T19:37:01.269Z,20.30
2018-09-13T19:39:30.915Z,20.50
2018-09-13T19:41:59.648Z,20.50
2018-09-13T19:44:27.327Z,20.20
2018-09-13T19:46:55.034Z,20.40
2018-09-13T19:49:23.303Z,20.50
2018-09-13T19:51:53.896Z,20.40
2018-09-13T19:54:21.537Z,19.90
2018-09-13T19:56:49.238Z,20.40
2018-09-13T19:59:16.848Z,20.40
2018-09-13T20:01:44.596Z,20.40
2018-09-13T20:04:13.028Z,20.30
2018-09-13T20:06:41.634Z,20.30
2018-09-13T20:09:10.660Z,20.50
2018-09-13T20:11:38.886Z,20.30
2018-09-13T20:14:10.407Z,20.40
2018-09-13T20:16:38.075Z,20.60
2018-09-13T20:19:05.804Z,20.50
2018-09-13T20:21:33.845Z,20.30
2018-09-13T20:24:02.064Z,19.90
2018-09-13T20:26:30.002Z,20.20
2018-09-13T20:28:57.742Z,20.20
2018-09-13T20:31:25.449Z,20.30
2018-09-13T20:33:53.804Z,20.20
2018-09-13T20:36:21.528Z,20.20
2018-09-13T20:38:49.313Z,20.20
2018-09-13T20:41:17.012Z,19.90
2018-09-13T20:43:49.247Z,20.40
2018-09-13T20:46:17.640Z,20.10
2018-09-13T20:48:46.460Z,20.10
2018-09-13T20:51:15.395Z,20.10
2018-09-13T20:53:43.111Z,20.20
2018-09-13T20:56:10.835Z,20.20
2018-09-13T20:58:40.062Z,20.10
2018-09-13T21:01:08.214Z,20.00
2018-09-13T21:03:36.292Z,20.00
2018-09-13T21:06:04.399Z,20.00
2018-09-13T21:08:33.893Z,20.20
2018-09-13T21:11:01.709Z,19.90
2018-09-13T21:13:31.240Z,19.90
2018-09-13T21:15:59.104Z,20.30
2018-09-13T21:18:26.902Z,20.00
2018-09-13T21:20:59.897Z,20.00
2018-09-13T21:23:27.793Z,19.90
2018-09-13T21:25:55.642Z,19.70
2018-09-13T21:28:23.423Z,19.80
2018-09-13T21:30:51.656Z,19.80
2018-09-13T21:33:20.188Z,19.80
2018-09-13T21:35:47.985Z,19.60
2018-09-13T21:38:15.827Z,19.50
2018-09-13T21:40:43.639Z,19.70
2018-09-13T21:43:11.351Z,19.50
2018-09-13T21:45:39.759Z,19.60
2018-09-13T21:48:07.596Z,19.50
2018-09-13T21:50:35.708Z,19.40
2018-09-13T21:53:03.525Z,19.60
2018-09-13T21:55:31.243Z,19.70
2018-09-13T21:57:58.923Z,19.70
2018-09-13T22:00:26.616Z,19.40
2018-09-13T22:02:54.358Z,19.70
2018-09-13T22:05:22.858Z,19.70
2018-09-13T22:07:50.735Z,19.70
2018-09-13T22:10:18.647Z,19.70
2018-09-13T22:12:46.259Z,19.60
2018-09-13T22:15:14.090Z,19.60
2018-09-13T22:17:41.975Z,19.60
2018-09-13T22:20:09.694Z,19.40
2018-09-13T22:22:37.440Z,19.60
2018-09-13T22:25:05.359Z,19.40
2018-09-13T22:27:33.114Z,19.40
2018-09-13T22:30:00.818Z,19.40
2018-09-13T22:32:28.502Z,19.50
2018-09-13T22:34:56.189Z,19.50
2018-09-13T22:37:23.890Z,19.50
2018-09-13T22:39:53.968Z,19.40
2018-09-13T22:42:21.887Z,19.10
2018-09-13T22:44:49.666Z,19.20
2018-09-13T22:47:17.346Z,19.50
2018-09-13T22:49:45.056Z,19.10
2018-09-13T22:52:12.694Z,19.20
2018-09-13T22:54:41.547Z,19.30
2018-09-13T22:57:09.374Z,19.30
2018-09-13T22:59:37.860Z,19.30
2018-09-13T23:02:05.619Z,19.30
2018-09-13T23:04:33.317Z,18.80
2018-09-13T23:07:00.953Z,19.40
2018-09-13T23:09:28.651Z,19.30
2018-09-13T23:11:56.298Z,19.30
2018-09-13T23:14:23.922Z,19.30
2018-09-13T23:16:51.546Z,19.40
2018-09-13T23:19:19.162Z,19.10
2018-09-13T23:21:46.839Z,19.10
2018-09-13T23:24:14.603Z,19.10
2018-09-13T23:26:42.287Z,19.40
2018-09-13T23:29:09.936Z,19.30
2018-09-13T23:31:37.656Z,19.30
2018-09-13T23:34:05.463Z,18.80
2018-09-13T23:36:33.212Z,19.50
2018-09-13T23:39:01.125Z,19.20
2018-09-13T23:41:28.867Z,19.40
2018-09-13T23:43:56.575Z,19.00
2018-09-13T23:46:24.384Z,19.20
2018-09-13T23:48:52.018Z,19.30
2018-09-13T23:51:19.650Z,19.50
2018-09-13T23:53:47.342Z,19.30
2018-09-13T23:56:15.081Z,19.20
2018-09-13T23:58:42.729Z,18.70
